createdAt,value
2023-05-31T00:01:11.352Z,8.70
2023-05-31T00:03:59.477Z,8.77
2023-05-31T00:06:47.599Z,9.13
2023-05-31T00:10:04.064Z,8.45
2023-05-31T00:12:51.863Z,8.70
2023-05-31T00:15:39.659Z,9.73
2023-05-31T00:18:27.569Z,8.63
2023-05-31T00:21:16.231Z,10.52
2023-05-31T00:24:04.094Z,9.52
2023-05-31T00:26:51.970Z,10.40
2023-05-31T00:29:39.721Z,10.32
2023-05-31T00:32:27.842Z,8.98
2023-05-31T00:35:15.831Z,9.38
2023-05-31T00:38:08.420Z,9.75
2023-05-31T00:40:56.467Z,9.75
2023-05-31T00:43:44.837Z,9.90
2023-05-31T00:46:37.052Z,8.65
2023-05-31T00:49:27.945Z,9.95
2023-05-31T00:52:16.297Z,9.95
2023-05-31T00:55:05.776Z,8.85
2023-05-31T00:57:53.855Z,9.88
2023-05-31T01:00:41.671Z,12.07
2023-05-31T01:03:29.643Z,10.57
2023-05-31T01:06:17.940Z,8.95
2023-05-31T01:09:11.212Z,9.02
2023-05-31T01:12:22.889Z,9.75
2023-05-31T01:15:35.271Z,8.60
2023-05-31T01:18:59.047Z,10.52
2023-05-31T01:25:38.395Z,7.97
2023-05-31T01:28:36.272Z,11.93
2023-05-31T01:31:24.497Z,9.93
2023-05-31T01:34:13.693Z,9.30
2023-05-31T01:37:01.534Z,9.35
2023-05-31T01:39:52.941Z,10.32
2023-05-31T01:42:43.444Z,8.55
2023-05-31T01:45:32.786Z,9.48
2023-05-31T01:48:21.094Z,10.35
2023-05-31T01:51:15.401Z,9.77
2023-05-31T01:54:03.754Z,12.73
2023-05-31T01:56:53.406Z,9.82
2023-05-31T02:00:37.710Z,9.40
2023-05-31T02:03:26.856Z,12.50
2023-05-31T02:06:14.975Z,10.50
2023-05-31T02:09:07.017Z,9.57
2023-05-31T02:14:44.182Z,11.75
2023-05-31T02:17:34.686Z,11.38
2023-05-31T02:20:24.972Z,10.27
2023-05-31T02:23:17.417Z,10.68
2023-05-31T02:26:06.323Z,12.55
2023-05-31T02:28:54.737Z,12.13
2023-05-31T02:31:43.246Z,10.52
2023-05-31T02:34:32.880Z,14.23
2023-05-31T02:37:21.020Z,11.65
2023-05-31T02:40:09.964Z,12.40
2023-05-31T02:42:58.649Z,10.90
2023-05-31T02:45:46.965Z,12.48
2023-05-31T02:48:35.859Z,14.35
2023-05-31T02:51:29.178Z,10.30
2023-05-31T02:54:43.271Z,11.38
2023-05-31T02:57:35.981Z,11.30
2023-05-31T03:00:25.111Z,11.00
2023-05-31T03:03:13.446Z,11.55
2023-05-31T03:06:20.539Z,11.18
2023-05-31T03:09:08.789Z,11.98
2023-05-31T03:11:58.401Z,13.43
2023-05-31T03:14:48.595Z,13.13
2023-05-31T03:17:38.498Z,11.35
2023-05-31T03:20:26.998Z,13.88
2023-05-31T03:23:14.934Z,13.65
2023-05-31T03:26:05.961Z,14.23
2023-05-31T03:28:54.130Z,14.25
2023-05-31T03:31:42.739Z,12.80
2023-05-31T03:34:31.663Z,12.98
2023-05-31T03:37:20.250Z,13.07
2023-05-31T03:40:16.925Z,11.98
2023-05-31T03:43:06.184Z,12.50
2023-05-31T03:45:54.571Z,12.73
2023-05-31T03:48:42.994Z,13.40
2023-05-31T03:51:31.454Z,15.18
2023-05-31T03:54:19.586Z,14.32
2023-05-31T03:57:08.526Z,14.13
2023-05-31T03:59:56.834Z,15.73
2023-05-31T04:02:55.974Z,18.42
2023-05-31T04:05:51.221Z,14.93
2023-05-31T04:08:39.343Z,16.40
2023-05-31T04:11:27.157Z,14.75
2023-05-31T04:14:15.171Z,14.93
2023-05-31T04:17:03.826Z,14.85
2023-05-31T04:19:52.413Z,14.45
2023-05-31T04:22:40.458Z,15.90
2023-05-31T04:25:28.814Z,16.92
2023-05-31T04:28:21.530Z,16.52
2023-05-31T04:33:58.189Z,16.45
2023-05-31T04:36:52.735Z,14.85
2023-05-31T04:39:43.610Z,14.57
2023-05-31T04:42:33.741Z,18.27
2023-05-31T04:45:22.756Z,14.82
2023-05-31T04:48:16.248Z,15.00
2023-05-31T04:51:05.505Z,17.88
2023-05-31T04:53:54.722Z,15.55
2023-05-31T04:56:43.364Z,15.52
2023-05-31T04:59:33.246Z,16.60
2023-05-31T05:02:25.249Z,18.27
2023-05-31T05:05:14.286Z,14.00
2023-05-31T05:08:02.363Z,15.85
2023-05-31T05:10:50.971Z,16.08
2023-05-31T05:16:31.053Z,16.67
2023-05-31T05:19:19.311Z,15.55
2023-05-31T05:22:08.216Z,16.20
2023-05-31T05:24:56.190Z,14.73
2023-05-31T05:27:44.372Z,14.88
2023-05-31T05:30:33.670Z,15.27
2023-05-31T05:34:00.694Z,15.52
2023-05-31T05:36:41.830Z,18.27
2023-05-31T05:39:29.845Z,17.70
2023-05-31T05:42:18.102Z,16.85
2023-05-31T05:45:10.219Z,16.33
2023-05-31T05:47:59.575Z,13.70
2023-05-31T05:50:48.373Z,16.08
2023-05-31T05:53:36.413Z,16.42
2023-05-31T05:56:24.558Z,16.52
2023-05-31T05:59:18.825Z,18.08
2023-05-31T06:02:34.113Z,17.02
2023-05-31T06:05:27.856Z,15.63
2023-05-31T06:08:16.855Z,16.33
2023-05-31T06:11:12.522Z,14.93
2023-05-31T06:14:06.392Z,16.63
2023-05-31T06:17:00.714Z,15.77
2023-05-31T06:19:48.675Z,18.83
2023-05-31T06:22:36.475Z,15.55
2023-05-31T06:25:24.443Z,15.98
2023-05-31T06:28:12.640Z,17.08
2023-05-31T06:31:02.160Z,16.48
2023-05-31T06:33:57.836Z,18.20
2023-05-31T06:36:55.053Z,15.65
2023-05-31T06:39:43.533Z,14.90
2023-05-31T06:42:31.806Z,17.75
2023-05-31T06:46:15.210Z,16.38
2023-05-31T06:49:38.161Z,19.20
2023-05-31T06:52:42.004Z,15.75
2023-05-31T06:55:48.779Z,15.27
2023-05-31T07:01:37.842Z,17.58
2023-05-31T07:04:26.892Z,15.07
2023-05-31T07:07:26.754Z,15.63
2023-05-31T07:10:23.641Z,16.52
2023-05-31T07:13:28.833Z,13.18
2023-05-31T07:16:17.871Z,17.33
2023-05-31T07:19:11.555Z,14.75
2023-05-31T07:22:01.363Z,14.48
2023-05-31T07:24:49.613Z,17.00
2023-05-31T07:27:38.014Z,16.48
2023-05-31T07:30:26.548Z,13.60
2023-05-31T07:33:14.455Z,15.60
2023-05-31T07:36:12.725Z,15.05
2023-05-31T07:39:00.929Z,14.90
2023-05-31T07:41:48.798Z,15.07
2023-05-31T07:44:36.711Z,12.88
2023-05-31T07:47:25.359Z,13.43
2023-05-31T07:50:13.336Z,18.05
2023-05-31T07:53:01.240Z,13.25
2023-05-31T07:55:49.165Z,16.10
2023-05-31T07:58:37.666Z,15.30
2023-05-31T08:01:25.546Z,14.43
2023-05-31T08:04:13.599Z,19.02
2023-05-31T08:07:02.240Z,13.45
2023-05-31T08:09:50.040Z,14.40
2023-05-31T08:13:08.317Z,14.25
2023-05-31T08:15:56.911Z,15.27
2023-05-31T08:18:46.111Z,13.73
2023-05-31T08:21:34.032Z,13.15
2023-05-31T08:24:21.838Z,13.60
2023-05-31T08:27:09.632Z,12.68
2023-05-31T08:29:57.489Z,12.75
2023-05-31T08:32:45.575Z,16.15
2023-05-31T08:35:33.363Z,12.88
2023-05-31T08:38:21.117Z,16.65
2023-05-31T08:41:09.081Z,14.02
2023-05-31T08:43:58.075Z,12.32
2023-05-31T08:46:49.085Z,11.88
2023-05-31T08:49:37.362Z,13.48
2023-05-31T08:52:26.496Z,12.77
2023-05-31T08:55:15.129Z,13.32
2023-05-31T08:58:03.797Z,13.68
2023-05-31T09:00:51.809Z,10.18
2023-05-31T09:03:43.263Z,10.73
2023-05-31T09:06:31.605Z,12.32
2023-05-31T09:09:20.185Z,13.07
2023-05-31T09:12:08.469Z,13.50
2023-05-31T09:14:56.400Z,10.90
2023-05-31T09:17:47.687Z,14.27
2023-05-31T09:20:35.668Z,10.80
2023-05-31T09:23:23.540Z,15.13
2023-05-31T09:26:11.406Z,13.00
2023-05-31T09:28:59.966Z,12.63
2023-05-31T09:31:48.310Z,13.20
2023-05-31T09:34:36.068Z,12.90
2023-05-31T09:37:25.758Z,12.50
2023-05-31T09:40:30.795Z,11.60
2023-05-31T09:43:18.534Z,14.18
2023-05-31T09:46:13.276Z,11.85
2023-05-31T09:49:07.773Z,12.02
2023-05-31T09:51:56.943Z,11.30
2023-05-31T09:54:44.865Z,10.82
2023-05-31T09:57:41.389Z,10.23
2023-05-31T10:00:29.426Z,10.45
2023-05-31T10:03:17.895Z,10.25
2023-05-31T10:06:05.943Z,10.25
2023-05-31T10:08:54.004Z,13.02
2023-05-31T10:11:51.397Z,12.10
2023-05-31T10:14:47.236Z,10.82
2023-05-31T10:17:46.192Z,10.82
2023-05-31T10:20:57.216Z,12.77
2023-05-31T10:23:56.075Z,12.32
2023-05-31T10:27:25.228Z,11.63
2023-05-31T10:30:14.945Z,10.50
2023-05-31T10:33:13.360Z,10.40
2023-05-31T10:36:01.982Z,9.18
2023-05-31T10:39:01.297Z,10.27
2023-05-31T10:41:59.294Z,11.90
2023-05-31T10:45:05.099Z,9.20
2023-05-31T10:48:03.529Z,12.00
2023-05-31T10:51:00.061Z,10.95
2023-05-31T10:53:48.140Z,10.90
2023-05-31T10:56:40.171Z,8.70
2023-05-31T10:59:28.336Z,13.13
2023-05-31T11:02:18.204Z,9.68
2023-05-31T11:05:28.044Z,8.57
2023-05-31T11:08:16.248Z,7.43
2023-05-31T11:11:32.841Z,6.28
2023-05-31T11:14:27.568Z,6.88
2023-05-31T11:17:16.811Z,8.80
2023-05-31T11:20:06.720Z,8.20
2023-05-31T11:23:32.810Z,7.05
2023-05-31T11:26:22.180Z,8.10
2023-05-31T11:29:10.030Z,8.55
2023-05-31T11:32:00.391Z,10.80
2023-05-31T11:34:57.406Z,9.07
2023-05-31T11:37:45.418Z,6.53
2023-05-31T11:40:36.547Z,9.98
2023-05-31T11:43:27.106Z,7.43
2023-05-31T11:46:15.245Z,9.63
2023-05-31T11:49:03.092Z,8.60
2023-05-31T11:51:50.990Z,7.88
2023-05-31T11:54:38.960Z,7.10
2023-05-31T11:57:27.434Z,7.93
2023-05-31T12:00:16.588Z,8.65
2023-05-31T12:03:06.837Z,9.88
2023-05-31T12:06:00.299Z,8.77
2023-05-31T12:08:48.137Z,8.07
2023-05-31T12:11:37.126Z,11.13
2023-05-31T12:14:27.421Z,8.40
2023-05-31T12:17:15.484Z,9.73
2023-05-31T12:20:06.173Z,8.07
2023-05-31T12:23:08.476Z,10.43
2023-05-31T12:26:00.130Z,8.55
2023-05-31T12:28:48.326Z,7.32
2023-05-31T12:31:38.822Z,9.70
2023-05-31T12:34:27.331Z,7.47
2023-05-31T12:37:15.148Z,9.60
2023-05-31T12:40:17.817Z,10.15
2023-05-31T12:43:06.849Z,9.27
2023-05-31T12:45:54.664Z,9.68
2023-05-31T12:48:49.571Z,8.18
2023-05-31T12:51:37.897Z,9.20
2023-05-31T12:54:31.902Z,9.85
2023-05-31T12:57:19.712Z,6.95
2023-05-31T13:00:12.417Z,8.77
2023-05-31T13:03:00.533Z,8.40
2023-05-31T13:05:48.545Z,7.00
2023-05-31T13:08:36.362Z,9.93
2023-05-31T13:11:24.164Z,8.13
2023-05-31T13:14:12.518Z,8.13
2023-05-31T13:17:00.571Z,6.88
2023-05-31T13:19:57.157Z,6.95
2023-05-31T13:22:59.012Z,6.57
2023-05-31T13:25:47.486Z,8.63
2023-05-31T13:28:35.448Z,7.47
2023-05-31T13:31:24.960Z,8.45
2023-05-31T13:34:12.747Z,7.45
2023-05-31T13:37:00.544Z,9.05
2023-05-31T13:39:48.874Z,9.27
2023-05-31T13:42:36.636Z,7.85
2023-05-31T13:45:24.487Z,10.02
2023-05-31T13:48:14.506Z,7.88
2023-05-31T13:51:02.566Z,7.93
2023-05-31T13:53:50.785Z,8.98
2023-05-31T13:56:38.616Z,8.00
2023-05-31T13:59:26.418Z,10.05
2023-05-31T14:02:14.163Z,8.45
2023-05-31T14:05:04.483Z,10.40
2023-05-31T14:07:52.511Z,8.98
2023-05-31T14:10:40.606Z,11.88
2023-05-31T14:13:30.205Z,10.00
2023-05-31T14:16:18.072Z,10.63
2023-05-31T14:19:06.296Z,6.35
2023-05-31T14:21:54.056Z,9.55
2023-05-31T14:24:41.909Z,8.57
2023-05-31T14:27:29.715Z,9.60
2023-05-31T14:30:17.520Z,7.00
2023-05-31T14:33:05.578Z,7.07
2023-05-31T14:35:53.891Z,10.05
2023-05-31T14:38:43.129Z,10.90
2023-05-31T14:41:30.993Z,7.72
2023-05-31T14:44:18.862Z,7.97
2023-05-31T14:47:06.881Z,8.88
2023-05-31T14:49:54.643Z,8.50
2023-05-31T14:52:42.467Z,8.25
2023-05-31T14:55:30.436Z,6.95
2023-05-31T14:58:18.378Z,8.77
2023-05-31T15:01:06.408Z,10.63
2023-05-31T15:03:56.285Z,11.82
2023-05-31T15:06:44.208Z,9.02
2023-05-31T15:09:32.067Z,11.55
2023-05-31T15:12:19.791Z,7.00
2023-05-31T15:15:08.142Z,7.70
2023-05-31T15:17:56.009Z,9.20
2023-05-31T15:20:43.785Z,7.45
2023-05-31T15:23:31.586Z,7.53
2023-05-31T15:26:19.629Z,10.15
2023-05-31T15:29:07.462Z,8.63
2023-05-31T15:31:58.122Z,7.43
2023-05-31T15:34:45.982Z,9.68
2023-05-31T15:37:34.520Z,7.32
2023-05-31T15:40:22.321Z,6.32
2023-05-31T15:43:10.052Z,10.75
2023-05-31T15:45:57.912Z,6.28
2023-05-31T15:48:45.718Z,7.93
2023-05-31T15:51:33.465Z,7.80
2023-05-31T15:54:21.370Z,9.70
2023-05-31T15:57:09.786Z,7.75
2023-05-31T15:59:57.525Z,8.73
2023-05-31T16:02:45.345Z,7.97
2023-05-31T16:05:33.386Z,8.18
2023-05-31T16:08:21.293Z,10.10
2023-05-31T16:11:09.146Z,6.18
2023-05-31T16:13:56.888Z,7.82
2023-05-31T16:16:44.726Z,6.07
2023-05-31T16:19:32.620Z,7.15
2023-05-31T16:22:20.473Z,7.70
2023-05-31T16:25:10.462Z,10.90
2023-05-31T16:27:58.252Z,8.48
2023-05-31T16:30:46.337Z,8.15
2023-05-31T16:33:34.089Z,7.70
2023-05-31T16:36:22.238Z,6.45
2023-05-31T16:39:10.060Z,7.35
2023-05-31T16:41:59.197Z,8.77
2023-05-31T16:44:46.926Z,5.90
2023-05-31T16:47:34.730Z,8.50
2023-05-31T16:50:22.673Z,5.80
2023-05-31T16:53:10.895Z,8.40
2023-05-31T16:55:58.904Z,8.15
2023-05-31T16:58:46.768Z,6.40
2023-05-31T17:01:35.056Z,9.63
2023-05-31T17:04:22.908Z,6.75
2023-05-31T17:07:10.867Z,6.85
2023-05-31T17:09:59.193Z,4.07
2023-05-31T17:12:48.076Z,7.45
2023-05-31T17:15:36.036Z,8.90
2023-05-31T17:18:24.104Z,8.35
2023-05-31T17:21:11.828Z,7.20
2023-05-31T17:23:59.694Z,6.20
2023-05-31T17:26:48.413Z,6.68
2023-05-31T17:29:36.166Z,7.57
2023-05-31T17:32:23.914Z,9.77
2023-05-31T17:35:11.705Z,6.82
2023-05-31T17:37:59.417Z,6.07
2023-05-31T17:40:47.236Z,6.20
2023-05-31T17:43:36.333Z,9.00
2023-05-31T17:46:24.367Z,7.15
2023-05-31T17:49:12.252Z,6.88
2023-05-31T17:52:00.149Z,10.32
2023-05-31T17:54:47.957Z,8.10
2023-05-31T17:57:36.184Z,7.93
2023-05-31T18:00:24.047Z,10.15
2023-05-31T18:03:11.860Z,8.65
2023-05-31T18:05:59.858Z,10.20
2023-05-31T18:08:47.643Z,7.93
2023-05-31T18:11:35.403Z,7.47
2023-05-31T18:14:23.228Z,7.45
2023-05-31T18:17:11.008Z,8.25
2023-05-31T18:19:58.806Z,8.77
2023-05-31T18:22:46.632Z,9.60
2023-05-31T18:25:34.932Z,9.60
2023-05-31T18:28:23.500Z,7.20
2023-05-31T18:31:11.425Z,8.82
2023-05-31T18:33:59.791Z,10.20
2023-05-31T18:36:47.667Z,9.20
2023-05-31T18:39:35.687Z,7.40
2023-05-31T18:42:23.513Z,10.90
2023-05-31T18:45:12.995Z,7.10
2023-05-31T18:48:06.864Z,7.78
2023-05-31T18:50:54.707Z,9.63
2023-05-31T18:53:42.645Z,8.73
2023-05-31T18:56:31.209Z,9.45
2023-05-31T18:59:19.327Z,7.43
2023-05-31T19:02:07.904Z,9.85
2023-05-31T19:04:55.848Z,9.38
2023-05-31T19:07:44.037Z,8.70
2023-05-31T19:10:34.871Z,9.45
2023-05-31T19:13:22.754Z,15.50
2023-05-31T19:16:10.734Z,8.38
2023-05-31T19:18:58.750Z,10.23
2023-05-31T19:21:46.692Z,8.65
2023-05-31T19:24:34.572Z,9.68
2023-05-31T19:27:22.369Z,8.32
2023-05-31T19:30:10.866Z,7.55
2023-05-31T19:32:58.672Z,7.70
2023-05-31T19:35:46.890Z,11.15
2023-05-31T19:38:34.691Z,10.05
2023-05-31T19:41:22.951Z,8.40
2023-05-31T19:44:10.817Z,7.03
2023-05-31T19:46:58.651Z,6.20
2023-05-31T19:49:46.529Z,9.20
2023-05-31T19:52:34.341Z,7.30
2023-05-31T19:55:22.093Z,8.35
2023-05-31T19:58:09.900Z,8.45
2023-05-31T20:00:57.868Z,10.02
2023-05-31T20:03:45.878Z,7.47
2023-05-31T20:06:33.734Z,7.50
2023-05-31T20:09:21.494Z,8.18
2023-05-31T20:12:09.661Z,7.97
2023-05-31T20:14:58.389Z,8.93
2023-05-31T20:17:47.664Z,7.13
2023-05-31T20:20:35.488Z,6.18
2023-05-31T20:23:23.283Z,8.75
2023-05-31T20:26:11.304Z,7.45
2023-05-31T20:28:59.084Z,7.10
2023-05-31T20:31:47.093Z,6.90
2023-05-31T20:34:34.970Z,7.68
2023-05-31T20:37:22.707Z,7.60
2023-05-31T20:40:11.392Z,9.13
2023-05-31T20:42:59.196Z,8.35
2023-05-31T20:45:46.983Z,8.38
2023-05-31T20:48:34.765Z,9.05
2023-05-31T20:51:23.549Z,6.70
2023-05-31T20:54:11.347Z,6.88
2023-05-31T20:56:59.916Z,8.32
2023-05-31T20:59:47.918Z,7.15
2023-05-31T21:02:38.008Z,10.38
2023-05-31T21:05:26.035Z,7.93
2023-05-31T21:08:13.795Z,9.05
2023-05-31T21:11:01.580Z,7.95
2023-05-31T21:13:49.421Z,11.73
2023-05-31T21:16:37.316Z,7.90
2023-05-31T21:19:25.866Z,10.13
2023-05-31T21:22:13.599Z,8.40
2023-05-31T21:25:01.357Z,9.35
2023-05-31T21:27:49.094Z,7.25
2023-05-31T21:30:36.950Z,8.07
2023-05-31T21:33:24.853Z,10.05
2023-05-31T21:36:12.595Z,8.60
2023-05-31T21:39:00.423Z,8.10
2023-05-31T21:41:48.243Z,11.18
2023-05-31T21:44:36.186Z,7.82
2023-05-31T21:47:23.969Z,5.95
2023-05-31T21:50:11.914Z,11.45
2023-05-31T21:52:59.753Z,10.23
2023-05-31T21:55:47.564Z,9.00
2023-05-31T21:58:35.353Z,11.57
2023-05-31T22:01:24.904Z,10.07
2023-05-31T22:04:12.800Z,8.70
2023-05-31T22:07:00.576Z,11.85
2023-05-31T22:09:48.499Z,10.45
2023-05-31T22:12:36.543Z,9.57
2023-05-31T22:15:27.040Z,11.15
2023-05-31T22:18:15.197Z,9.38
2023-05-31T22:21:05.706Z,10.10
2023-05-31T22:23:54.102Z,13.30
2023-05-31T22:26:41.923Z,14.07
2023-05-31T22:29:29.668Z,13.48
2023-05-31T22:32:19.879Z,11.30
2023-05-31T22:35:08.263Z,10.65
2023-05-31T22:37:56.267Z,12.88
2023-05-31T22:40:44.265Z,11.43
2023-05-31T22:43:32.366Z,12.07
2023-05-31T22:46:20.600Z,10.82
2023-05-31T22:49:08.424Z,11.40
2023-05-31T22:52:00.023Z,13.75
2023-05-31T22:54:48.255Z,13.60
2023-05-31T22:57:36.062Z,12.63
2023-05-31T23:00:23.864Z,12.23
2023-05-31T23:03:11.718Z,14.27
2023-05-31T23:06:01.758Z,12.13
2023-05-31T23:08:50.246Z,14.73
2023-05-31T23:11:38.343Z,14.32
2023-05-31T23:14:27.510Z,17.63
2023-05-31T23:17:17.398Z,14.30
2023-05-31T23:20:16.246Z,13.95
2023-05-31T23:23:05.678Z,16.50
2023-05-31T23:25:53.662Z,13.27
2023-05-31T23:28:41.468Z,17.73
2023-05-31T23:31:29.451Z,17.27
2023-05-31T23:34:17.342Z,15.30
2023-05-31T23:37:05.713Z,14.80
2023-05-31T23:39:54.076Z,16.75
2023-05-31T23:42:41.906Z,14.48
2023-05-31T23:45:29.832Z,15.27
2023-05-31T23:48:17.577Z,15.60
2023-05-31T23:51:05.545Z,14.93
2023-05-31T23:53:53.386Z,13.95
2023-05-31T23:56:41.381Z,15.02
2023-05-31T23:59:29.209Z,17.00
